sensor_id;sensor_type;location;lat;lon;timestamp;temperature;humidity
36548;DHT22;22551;52.206;4.856;2023-12-14T00:04:21;5.60;99.90
36548;DHT22;22551;52.206;4.856;2023-12-14T00:09:23;5.50;99.90
36548;DHT22;22551;52.206;4.856;2023-12-14T00:14:27;5.50;99.90
36548;DHT22;22551;52.206;4.856;2023-12-14T00:19:29;5.50;99.90
36548;DHT22;22551;52.206;4.856;2023-12-14T00:24:31;5.50;99.90
36548;DHT22;22551;52.206;4.856;2023-12-14T00:29:35;5.50;99.90
36548;DHT22;22551;52.206;4.856;2023-12-14T00:34:37;5.50;99.90
36548;DHT22;22551;52.206;4.856;2023-12-14T00:39:39;5.50;99.90
36548;DHT22;22551;52.206;4.856;2023-12-14T00:44:43;5.50;99.90
36548;DHT22;22551;52.206;4.856;2023-12-14T00:49:45;5.50;99.90
36548;DHT22;22551;52.206;4.856;2023-12-14T00:54:47;5.50;99.90
36548;DHT22;22551;52.206;4.856;2023-12-14T00:59:50;5.50;99.90
36548;DHT22;22551;52.206;4.856;2023-12-14T01:04:52;5.50;99.90
36548;DHT22;22551;52.206;4.856;2023-12-14T01:09:54;5.50;99.90
36548;DHT22;22551;52.206;4.856;2023-12-14T01:14:58;5.50;99.90
36548;DHT22;22551;52.206;4.856;2023-12-14T01:20:00;5.50;99.90
36548;DHT22;22551;52.206;4.856;2023-12-14T01:25:02;5.50;99.90
36548;DHT22;22551;52.206;4.856;2023-12-14T01:30:08;5.50;99.90
36548;DHT22;22551;52.206;4.856;2023-12-14T01:35:11;5.50;99.90
36548;DHT22;22551;52.206;4.856;2023-12-14T01:40:13;5.50;99.90
36548;DHT22;22551;52.206;4.856;2023-12-14T01:45:17;5.50;99.90
36548;DHT22;22551;52.206;4.856;2023-12-14T01:50:19;5.50;99.90
36548;DHT22;22551;52.206;4.856;2023-12-14T01:55:21;5.50;99.90
36548;DHT22;22551;52.206;4.856;2023-12-14T02:00:30;5.50;99.90
36548;DHT22;22551;52.206;4.856;2023-12-14T02:05:38;5.50;99.90
36548;DHT22;22551;52.206;4.856;2023-12-14T02:10:40;5.50;99.90
36548;DHT22;22551;52.206;4.856;2023-12-14T02:15:44;5.50;99.90
36548;DHT22;22551;52.206;4.856;2023-12-14T02:20:46;5.50;99.90
36548;DHT22;22551;52.206;4.856;2023-12-14T02:25:49;5.50;99.90
36548;DHT22;22551;52.206;4.856;2023-12-14T02:30:51;5.50;99.90
36548;DHT22;22551;52.206;4.856;2023-12-14T02:35:53;5.50;99.90
36548;DHT22;22551;52.206;4.856;2023-12-14T02:40:57;5.50;99.90
36548;DHT22;22551;52.206;4.856;2023-12-14T02:45:59;5.40;99.90
36548;DHT22;22551;52.206;4.856;2023-12-14T02:51:03;5.40;99.90
36548;DHT22;22551;52.206;4.856;2023-12-14T02:56:09;5.40;99.90
36548;DHT22;22551;52.206;4.856;2023-12-14T03:01:11;5.30;99.90
36548;DHT22;22551;52.206;4.856;2023-12-14T03:06:13;5.40;99.90
36548;DHT22;22551;52.206;4.856;2023-12-14T03:11:23;5.30;99.90
36548;DHT22;22551;52.206;4.856;2023-12-14T03:16:25;5.30;99.90
36548;DHT22;22551;52.206;4.856;2023-12-14T03:21:27;5.30;99.90
36548;DHT22;22551;52.206;4.856;2023-12-14T03:26:31;5.30;99.90
36548;DHT22;22551;52.206;4.856;2023-12-14T03:31:33;5.30;99.90
36548;DHT22;22551;52.206;4.856;2023-12-14T03:36:35;5.30;99.90
36548;DHT22;22551;52.206;4.856;2023-12-14T03:41:39;5.30;99.90
36548;DHT22;22551;52.206;4.856;2023-12-14T03:46:41;5.30;99.90
36548;DHT22;22551;52.206;4.856;2023-12-14T03:51:43;5.30;99.90
36548;DHT22;22551;52.206;4.856;2023-12-14T03:56:46;5.20;99.90
36548;DHT22;22551;52.206;4.856;2023-12-14T04:01:48;5.20;99.90
36548;DHT22;22551;52.206;4.856;2023-12-14T04:06:50;5.20;99.90
36548;DHT22;22551;52.206;4.856;2023-12-14T04:11:54;5.20;99.90
36548;DHT22;22551;52.206;4.856;2023-12-14T04:16:56;5.10;99.90
36548;DHT22;22551;52.206;4.856;2023-12-14T04:21:58;5.10;99.90
36548;DHT22;22551;52.206;4.856;2023-12-14T04:27:03;5.10;99.90
36548;DHT22;22551;52.206;4.856;2023-12-14T04:32:06;5.00;99.90
36548;DHT22;22551;52.206;4.856;2023-12-14T04:37:08;5.10;99.90
36548;DHT22;22551;52.206;4.856;2023-12-14T04:42:11;5.00;99.90
36548;DHT22;22551;52.206;4.856;2023-12-14T04:47:14;5.00;99.90
36548;DHT22;22551;52.206;4.856;2023-12-14T04:52:16;5.00;99.90
36548;DHT22;22551;52.206;4.856;2023-12-14T04:57:19;4.90;99.90
36548;DHT22;22551;52.206;4.856;2023-12-14T05:02:22;4.90;99.90
36548;DHT22;22551;52.206;4.856;2023-12-14T05:07:24;4.90;99.90
36548;DHT22;22551;52.206;4.856;2023-12-14T05:12:28;4.80;99.90
36548;DHT22;22551;52.206;4.856;2023-12-14T05:17:32;4.80;99.90
36548;DHT22;22551;52.206;4.856;2023-12-14T05:22:35;4.80;99.90
36548;DHT22;22551;52.206;4.856;2023-12-14T05:27:38;4.80;99.90
36548;DHT22;22551;52.206;4.856;2023-12-14T05:32:41;4.80;99.90
36548;DHT22;22551;52.206;4.856;2023-12-14T05:37:43;4.80;99.90
36548;DHT22;22551;52.206;4.856;2023-12-14T05:42:47;4.80;99.90
36548;DHT22;22551;52.206;4.856;2023-12-14T05:47:49;4.80;99.90
36548;DHT22;22551;52.206;4.856;2023-12-14T05:52:51;4.80;99.90
36548;DHT22;22551;52.206;4.856;2023-12-14T05:57:55;4.80;99.90
36548;DHT22;22551;52.206;4.856;2023-12-14T06:02:57;4.70;99.90
36548;DHT22;22551;52.206;4.856;2023-12-14T06:07:59;4.80;99.90
36548;DHT22;22551;52.206;4.856;2023-12-14T06:13:02;4.80;99.90
36548;DHT22;22551;52.206;4.856;2023-12-14T06:18:05;4.80;99.90
36548;DHT22;22551;52.206;4.856;2023-12-14T06:23:07;4.70;99.90
36548;DHT22;22551;52.206;4.856;2023-12-14T06:28:11;4.70;99.90
36548;DHT22;22551;52.206;4.856;2023-12-14T06:33:13;4.70;99.90
36548;DHT22;22551;52.206;4.856;2023-12-14T06:38:15;4.70;99.90
36548;DHT22;22551;52.206;4.856;2023-12-14T06:43:20;4.80;99.90
36548;DHT22;22551;52.206;4.856;2023-12-14T06:48:22;4.80;99.90
36548;DHT22;22551;52.206;4.856;2023-12-14T06:53:24;4.80;99.90
36548;DHT22;22551;52.206;4.856;2023-12-14T06:58:28;4.90;99.90
36548;DHT22;22551;52.206;4.856;2023-12-14T07:03:30;4.80;99.90
36548;DHT22;22551;52.206;4.856;2023-12-14T07:08:33;4.80;99.90
36548;DHT22;22551;52.206;4.856;2023-12-14T07:13:36;4.80;99.90
36548;DHT22;22551;52.206;4.856;2023-12-14T07:18:40;4.80;99.90
36548;DHT22;22551;52.206;4.856;2023-12-14T07:23:43;4.80;99.90
36548;DHT22;22551;52.206;4.856;2023-12-14T07:28:46;4.90;99.90
36548;DHT22;22551;52.206;4.856;2023-12-14T07:33:48;4.90;99.90
36548;DHT22;22551;52.206;4.856;2023-12-14T07:38:50;4.90;99.90
36548;DHT22;22551;52.206;4.856;2023-12-14T07:43:54;4.90;99.90
36548;DHT22;22551;52.206;4.856;2023-12-14T07:48:56;4.90;99.90
36548;DHT22;22551;52.206;4.856;2023-12-14T07:53:58;4.80;99.90
36548;DHT22;22551;52.206;4.856;2023-12-14T07:59:02;4.90;99.90
36548;DHT22;22551;52.206;4.856;2023-12-14T08:04:07;4.90;99.90
36548;DHT22;22551;52.206;4.856;2023-12-14T08:09:10;4.80;99.90
36548;DHT22;22551;52.206;4.856;2023-12-14T08:14:14;4.70;99.90
36548;DHT22;22551;52.206;4.856;2023-12-14T08:19:16;4.70;99.90
36548;DHT22;22551;52.206;4.856;2023-12-14T08:24:18;4.70;99.90
36548;DHT22;22551;52.206;4.856;2023-12-14T08:29:22;4.60;99.90
36548;DHT22;22551;52.206;4.856;2023-12-14T08:34:24;4.60;99.90
36548;DHT22;22551;52.206;4.856;2023-12-14T08:39:26;4.60;99.90
36548;DHT22;22551;52.206;4.856;2023-12-14T08:44:30;4.50;99.90
36548;DHT22;22551;52.206;4.856;2023-12-14T08:49:32;4.50;99.90
36548;DHT22;22551;52.206;4.856;2023-12-14T08:54:34;4.60;99.90
36548;DHT22;22551;52.206;4.856;2023-12-14T08:59:37;4.60;99.90
36548;DHT22;22551;52.206;4.856;2023-12-14T09:04:40;4.70;99.90
36548;DHT22;22551;52.206;4.856;2023-12-14T09:09:42;4.80;99.90
36548;DHT22;22551;52.206;4.856;2023-12-14T09:14:45;5.00;99.90
36548;DHT22;22551;52.206;4.856;2023-12-14T09:19:48;5.20;99.90
36548;DHT22;22551;52.206;4.856;2023-12-14T09:24:50;5.30;99.90
36548;DHT22;22551;52.206;4.856;2023-12-14T09:29:55;5.50;99.90
36548;DHT22;22551;52.206;4.856;2023-12-14T09:34:57;5.50;99.90
36548;DHT22;22551;52.206;4.856;2023-12-14T09:39:59;5.50;99.90
36548;DHT22;22551;52.206;4.856;2023-12-14T09:45:07;5.60;99.90
36548;DHT22;22551;52.206;4.856;2023-12-14T09:50:10;5.60;99.90
36548;DHT22;22551;52.206;4.856;2023-12-14T09:55:12;5.60;99.90
36548;DHT22;22551;52.206;4.856;2023-12-14T10:00:32;5.60;99.90
36548;DHT22;22551;52.206;4.856;2023-12-14T10:05:36;5.60;99.90
36548;DHT22;22551;52.206;4.856;2023-12-14T10:10:38;5.60;99.90
36548;DHT22;22551;52.206;4.856;2023-12-14T10:15:42;5.60;99.90
36548;DHT22;22551;52.206;4.856;2023-12-14T10:20:46;5.70;99.90
36548;DHT22;22551;52.206;4.856;2023-12-14T10:25:48;5.70;99.90
36548;DHT22;22551;52.206;4.856;2023-12-14T10:30:52;5.70;99.90
36548;DHT22;22551;52.206;4.856;2023-12-14T10:35:54;5.70;99.90
36548;DHT22;22551;52.206;4.856;2023-12-14T10:40:58;5.80;99.90
36548;DHT22;22551;52.206;4.856;2023-12-14T10:46:02;6.00;99.90
36548;DHT22;22551;52.206;4.856;2023-12-14T10:51:06;6.00;99.90
36548;DHT22;22551;52.206;4.856;2023-12-14T10:56:10;6.10;99.90
36548;DHT22;22551;52.206;4.856;2023-12-14T11:01:15;6.10;99.90
36548;DHT22;22551;52.206;4.856;2023-12-14T11:06:21;6.20;99.90
36548;DHT22;22551;52.206;4.856;2023-12-14T11:11:28;6.20;99.90
36548;DHT22;22551;52.206;4.856;2023-12-14T11:16:32;6.10;99.90
36548;DHT22;22551;52.206;4.856;2023-12-14T11:21:34;6.10;99.90
36548;DHT22;22551;52.206;4.856;2023-12-14T11:26:36;6.10;99.90
36548;DHT22;22551;52.206;4.856;2023-12-14T11:31:41;6.10;99.90
36548;DHT22;22551;52.206;4.856;2023-12-14T11:36:43;6.20;99.90
36548;DHT22;22551;52.206;4.856;2023-12-14T11:41:58;6.30;99.90
36548;DHT22;22551;52.206;4.856;2023-12-14T11:47:03;6.30;99.90
36548;DHT22;22551;52.206;4.856;2023-12-14T11:52:05;6.40;99.90
36548;DHT22;22551;52.206;4.856;2023-12-14T11:57:07;6.40;99.90
36548;DHT22;22551;52.206;4.856;2023-12-14T12:02:11;6.50;99.90
36548;DHT22;22551;52.206;4.856;2023-12-14T12:07:14;6.50;99.90
36548;DHT22;22551;52.206;4.856;2023-12-14T12:12:18;6.60;99.90
36548;DHT22;22551;52.206;4.856;2023-12-14T12:17:22;6.60;99.90
36548;DHT22;22551;52.206;4.856;2023-12-14T12:22:24;6.60;99.90
36548;DHT22;22551;52.206;4.856;2023-12-14T12:27:26;6.60;99.90
36548;DHT22;22551;52.206;4.856;2023-12-14T12:32:30;6.60;99.90
36548;DHT22;22551;52.206;4.856;2023-12-14T12:37:32;6.70;99.90
36548;DHT22;22551;52.206;4.856;2023-12-14T12:42:34;6.70;99.90
36548;DHT22;22551;52.206;4.856;2023-12-14T12:47:37;6.70;99.90
36548;DHT22;22551;52.206;4.856;2023-12-14T12:52:40;6.80;99.90
36548;DHT22;22551;52.206;4.856;2023-12-14T12:57:42;6.80;99.90
36548;DHT22;22551;52.206;4.856;2023-12-14T13:02:46;6.80;99.90
36548;DHT22;22551;52.206;4.856;2023-12-14T13:07:48;6.80;99.90
36548;DHT22;22551;52.206;4.856;2023-12-14T13:12:50;6.80;99.90
36548;DHT22;22551;52.206;4.856;2023-12-14T13:17:54;6.80;99.90
36548;DHT22;22551;52.206;4.856;2023-12-14T13:22:56;6.90;99.90
36548;DHT22;22551;52.206;4.856;2023-12-14T13:27:58;6.80;99.90
36548;DHT22;22551;52.206;4.856;2023-12-14T13:33:01;6.80;99.90
36548;DHT22;22551;52.206;4.856;2023-12-14T13:38:04;6.70;99.90
36548;DHT22;22551;52.206;4.856;2023-12-14T13:43:07;6.70;99.90
36548;DHT22;22551;52.206;4.856;2023-12-14T13:48:12;6.70;99.90
36548;DHT22;22551;52.206;4.856;2023-12-14T13:53:14;6.70;99.90
36548;DHT22;22551;52.206;4.856;2023-12-14T13:58:16;6.60;99.90
36548;DHT22;22551;52.206;4.856;2023-12-14T14:03:20;6.60;99.90
36548;DHT22;22551;52.206;4.856;2023-12-14T14:08:22;6.60;99.90
36548;DHT22;22551;52.206;4.856;2023-12-14T14:13:24;6.60;99.90
36548;DHT22;22551;52.206;4.856;2023-12-14T14:18:27;6.60;99.90
36548;DHT22;22551;52.206;4.856;2023-12-14T14:23:29;6.60;99.90
36548;DHT22;22551;52.206;4.856;2023-12-14T14:28:32;6.60;99.90
36548;DHT22;22551;52.206;4.856;2023-12-14T14:33:35;6.60;99.90
36548;DHT22;22551;52.206;4.856;2023-12-14T14:38:37;6.60;99.90
36548;DHT22;22551;52.206;4.856;2023-12-14T14:43:40;6.60;99.90
36548;DHT22;22551;52.206;4.856;2023-12-14T14:48:45;6.50;99.90
36548;DHT22;22551;52.206;4.856;2023-12-14T14:53:47;6.40;99.90
36548;DHT22;22551;52.206;4.856;2023-12-14T14:58:49;6.40;99.90
36548;DHT22;22551;52.206;4.856;2023-12-14T15:03:53;6.40;99.90
36548;DHT22;22551;52.206;4.856;2023-12-14T15:08:55;6.30;99.90
36548;DHT22;22551;52.206;4.856;2023-12-14T15:13:57;6.30;99.90
36548;DHT22;22551;52.206;4.856;2023-12-14T15:19:01;6.30;99.90
36548;DHT22;22551;52.206;4.856;2023-12-14T15:24:04;6.20;99.90
36548;DHT22;22551;52.206;4.856;2023-12-14T15:29:07;6.20;99.90
36548;DHT22;22551;52.206;4.856;2023-12-14T15:34:10;6.20;99.90
36548;DHT22;22551;52.206;4.856;2023-12-14T15:39:12;6.20;99.90
36548;DHT22;22551;52.206;4.856;2023-12-14T15:44:14;6.20;99.90
36548;DHT22;22551;52.206;4.856;2023-12-14T15:49:18;6.20;99.90
36548;DHT22;22551;52.206;4.856;2023-12-14T15:54:20;6.20;99.90
36548;DHT22;22551;52.206;4.856;2023-12-14T15:59:22;6.20;99.90
36548;DHT22;22551;52.206;4.856;2023-12-14T16:04:26;6.20;99.90
36548;DHT22;22551;52.206;4.856;2023-12-14T16:09:28;6.20;99.90
36548;DHT22;22551;52.206;4.856;2023-12-14T16:14:30;6.20;99.90
36548;DHT22;22551;52.206;4.856;2023-12-14T16:19:33;6.10;99.90
36548;DHT22;22551;52.206;4.856;2023-12-14T16:24:35;6.20;99.90
36548;DHT22;22551;52.206;4.856;2023-12-14T16:29:37;6.20;99.90
36548;DHT22;22551;52.206;4.856;2023-12-14T16:34:41;6.10;99.90
36548;DHT22;22551;52.206;4.856;2023-12-14T16:39:43;6.10;99.90
36548;DHT22;22551;52.206;4.856;2023-12-14T16:44:45;6.10;99.90
36548;DHT22;22551;52.206;4.856;2023-12-14T16:49:49;6.10;99.90
36548;DHT22;22551;52.206;4.856;2023-12-14T16:54:51;6.00;99.90
36548;DHT22;22551;52.206;4.856;2023-12-14T16:59:53;6.00;99.90
36548;DHT22;22551;52.206;4.856;2023-12-14T17:04:56;5.90;99.90
36548;DHT22;22551;52.206;4.856;2023-12-14T17:09:59;5.90;99.90
36548;DHT22;22551;52.206;4.856;2023-12-14T17:15:01;5.80;99.90
36548;DHT22;22551;52.206;4.856;2023-12-14T17:20:06;5.80;99.90
36548;DHT22;22551;52.206;4.856;2023-12-14T17:25:09;5.80;99.90
36548;DHT22;22551;52.206;4.856;2023-12-14T17:30:11;5.80;99.90
36548;DHT22;22551;52.206;4.856;2023-12-14T17:35:15;5.80;99.90
36548;DHT22;22551;52.206;4.856;2023-12-14T17:40:17;5.80;99.90
36548;DHT22;22551;52.206;4.856;2023-12-14T17:45:19;5.80;99.90
36548;DHT22;22551;52.206;4.856;2023-12-14T17:50:23;5.80;99.90
36548;DHT22;22551;52.206;4.856;2023-12-14T17:55:25;5.80;99.90
36548;DHT22;22551;52.206;4.856;2023-12-14T18:00:28;5.80;99.90
36548;DHT22;22551;52.206;4.856;2023-12-14T18:05:31;5.80;99.90
36548;DHT22;22551;52.206;4.856;2023-12-14T18:10:36;5.80;99.90
36548;DHT22;22551;52.206;4.856;2023-12-14T18:15:39;5.80;99.90
36548;DHT22;22551;52.206;4.856;2023-12-14T18:20:42;5.80;99.90
36548;DHT22;22551;52.206;4.856;2023-12-14T18:25:44;5.80;99.90
36548;DHT22;22551;52.206;4.856;2023-12-14T18:30:47;5.80;99.90
36548;DHT22;22551;52.206;4.856;2023-12-14T18:35:51;5.90;99.90
36548;DHT22;22551;52.206;4.856;2023-12-14T18:40:53;5.90;99.90
36548;DHT22;22551;52.206;4.856;2023-12-14T18:45:55;5.90;99.90
36548;DHT22;22551;52.206;4.856;2023-12-14T18:50:58;5.90;99.90
36548;DHT22;22551;52.206;4.856;2023-12-14T18:56:00;5.90;99.90
36548;DHT22;22551;52.206;4.856;2023-12-14T19:01:03;5.90;99.90
36548;DHT22;22551;52.206;4.856;2023-12-14T19:06:08;5.90;99.90
36548;DHT22;22551;52.206;4.856;2023-12-14T19:11:14;5.90;99.90
36548;DHT22;22551;52.206;4.856;2023-12-14T19:16:24;5.90;99.90
36548;DHT22;22551;52.206;4.856;2023-12-14T19:21:28;6.00;99.90
36548;DHT22;22551;52.206;4.856;2023-12-14T19:26:31;6.00;99.90
36548;DHT22;22551;52.206;4.856;2023-12-14T19:31:33;6.00;99.90
36548;DHT22;22551;52.206;4.856;2023-12-14T19:36:36;6.10;99.90
36548;DHT22;22551;52.206;4.856;2023-12-14T19:41:39;6.10;99.90
36548;DHT22;22551;52.206;4.856;2023-12-14T19:46:41;6.10;99.90
36548;DHT22;22551;52.206;4.856;2023-12-14T19:51:44;6.10;99.90
36548;DHT22;22551;52.206;4.856;2023-12-14T19:56:46;6.20;99.90
36548;DHT22;22551;52.206;4.856;2023-12-14T20:01:48;6.30;99.90
36548;DHT22;22551;52.206;4.856;2023-12-14T20:06:53;6.30;99.90
36548;DHT22;22551;52.206;4.856;2023-12-14T20:11:58;6.40;99.90
36548;DHT22;22551;52.206;4.856;2023-12-14T20:17:00;6.40;99.90
36548;DHT22;22551;52.206;4.856;2023-12-14T20:22:03;6.40;99.90
36548;DHT22;22551;52.206;4.856;2023-12-14T20:27:05;6.40;99.90
36548;DHT22;22551;52.206;4.856;2023-12-14T20:32:08;6.50;99.90
36548;DHT22;22551;52.206;4.856;2023-12-14T20:37:11;6.50;99.90
36548;DHT22;22551;52.206;4.856;2023-12-14T20:42:13;6.50;99.90
36548;DHT22;22551;52.206;4.856;2023-12-14T20:47:15;6.50;99.90
36548;DHT22;22551;52.206;4.856;2023-12-14T20:52:19;6.50;99.90
36548;DHT22;22551;52.206;4.856;2023-12-14T20:57:21;6.50;99.90
36548;DHT22;22551;52.206;4.856;2023-12-14T21:02:23;6.50;99.90
36548;DHT22;22551;52.206;4.856;2023-12-14T21:07:26;6.40;99.90
36548;DHT22;22551;52.206;4.856;2023-12-14T21:12:28;6.40;99.90
36548;DHT22;22551;52.206;4.856;2023-12-14T21:17:31;6.40;99.90
36548;DHT22;22551;52.206;4.856;2023-12-14T21:22:34;6.40;99.90
36548;DHT22;22551;52.206;4.856;2023-12-14T21:27:37;6.40;99.90
36548;DHT22;22551;52.206;4.856;2023-12-14T21:32:46;6.40;99.90
36548;DHT22;22551;52.206;4.856;2023-12-14T21:37:50;6.40;99.90
36548;DHT22;22551;52.206;4.856;2023-12-14T21:42:52;6.50;99.90
36548;DHT22;22551;52.206;4.856;2023-12-14T21:47:54;6.50;99.90
36548;DHT22;22551;52.206;4.856;2023-12-14T21:52:58;6.50;99.90
36548;DHT22;22551;52.206;4.856;2023-12-14T21:58:00;6.40;99.90
36548;DHT22;22551;52.206;4.856;2023-12-14T22:03:03;6.50;99.90
36548;DHT22;22551;52.206;4.856;2023-12-14T22:08:06;6.50;99.90
36548;DHT22;22551;52.206;4.856;2023-12-14T22:13:09;6.50;99.90
36548;DHT22;22551;52.206;4.856;2023-12-14T22:18:12;6.50;99.90
36548;DHT22;22551;52.206;4.856;2023-12-14T22:23:15;6.60;99.90
36548;DHT22;22551;52.206;4.856;2023-12-14T22:28:17;6.60;99.90
36548;DHT22;22551;52.206;4.856;2023-12-14T22:33:19;6.60;99.90
36548;DHT22;22551;52.206;4.856;2023-12-14T22:38:23;6.60;99.90
36548;DHT22;22551;52.206;4.856;2023-12-14T22:43:25;6.70;99.90
36548;DHT22;22551;52.206;4.856;2023-12-14T22:48:27;6.70;99.90
36548;DHT22;22551;52.206;4.856;2023-12-14T22:53:30;6.70;99.90
36548;DHT22;22551;52.206;4.856;2023-12-14T22:58:32;6.70;99.90
36548;DHT22;22551;52.206;4.856;2023-12-14T23:03:34;6.70;99.90
36548;DHT22;22551;52.206;4.856;2023-12-14T23:08:38;6.80;99.90
36548;DHT22;22551;52.206;4.856;2023-12-14T23:13:40;6.80;99.90
36548;DHT22;22551;52.206;4.856;2023-12-14T23:18:42;6.80;99.90
36548;DHT22;22551;52.206;4.856;2023-12-14T23:23:46;6.90;99.90
36548;DHT22;22551;52.206;4.856;2023-12-14T23:28:48;6.90;99.90
36548;DHT22;22551;52.206;4.856;2023-12-14T23:33:50;6.90;99.90
36548;DHT22;22551;52.206;4.856;2023-12-14T23:38:54;6.90;99.90
36548;DHT22;22551;52.206;4.856;2023-12-14T23:43:56;7.00;99.90
36548;DHT22;22551;52.206;4.856;2023-12-14T23:48:59;7.00;99.90
36548;DHT22;22551;52.206;4.856;2023-12-14T23:54:03;6.90;99.90
36548;DHT22;22551;52.206;4.856;2023-12-14T23:59:05;6.90;99.90
